Stalbridge, United Kingdom
Current Conditions -  °F | °C
As of 8:50 AM on Wednesday 22 Oct 2014 (Local Time) from EGDY Reporting Station
Broken Clouds Broken Clouds  
Wind Chill: 50°   Ceiling: 4200
Heat Index: 50°   Visibility: 6mi
Dew Point: 39°   Wind: 2mph
Humidity: 66%   Direction: 230°SW
Pressure: 30.33"   Gusts: NA
Location:  50.96°N, 2.38°W
Report Text: EGDY 220750Z AUTO 23002KT 9999 BKN042/// BKN080/// 10/04 Q1027
Loading
Personal Weather Stations






























Interactive Weather Map
Tropical Storm Tracking
New forecast layout! Learn more

10-Day Weather Forecast

Advertisements
Track Severe Weather on mobile